sensor_id;sensor_type;location;lat;lon;timestamp;P1;durP1;ratioP1;P2;durP2;ratioP2
41923;SDS011;27613;48.116;11.656;2023-04-21T00:00:08;15.98;;;13.43;;
41923;SDS011;27613;48.116;11.656;2023-04-21T00:02:34;17.02;;;13.05;;
41923;SDS011;27613;48.116;11.656;2023-04-21T00:05:04;15.00;;;12.90;;
41923;SDS011;27613;48.116;11.656;2023-04-21T00:07:31;16.20;;;14.13;;
41923;SDS011;27613;48.116;11.656;2023-04-21T00:09:58;16.27;;;13.80;;
41923;SDS011;27613;48.116;11.656;2023-04-21T00:12:23;16.38;;;14.50;;
41923;SDS011;27613;48.116;11.656;2023-04-21T00:14:49;17.60;;;14.95;;
41923;SDS011;27613;48.116;11.656;2023-04-21T00:17:14;16.75;;;14.52;;
41923;SDS011;27613;48.116;11.656;2023-04-21T00:19:40;15.70;;;12.95;;
41923;SDS011;27613;48.116;11.656;2023-04-21T00:22:06;21.38;;;14.52;;
41923;SDS011;27613;48.116;11.656;2023-04-21T00:24:36;21.13;;;15.32;;
41923;SDS011;27613;48.116;11.656;2023-04-21T00:27:01;15.95;;;13.60;;
41923;SDS011;27613;48.116;11.656;2023-04-21T00:29:27;15.02;;;13.18;;
41923;SDS011;27613;48.116;11.656;2023-04-21T00:31:53;17.65;;;14.63;;
41923;SDS011;27613;48.116;11.656;2023-04-21T00:34:18;16.42;;;14.38;;
41923;SDS011;27613;48.116;11.656;2023-04-21T00:36:44;20.52;;;15.85;;
41923;SDS011;27613;48.116;11.656;2023-04-21T00:39:10;16.05;;;14.05;;
41923;SDS011;27613;48.116;11.656;2023-04-21T00:41:35;15.90;;;13.95;;
41923;SDS011;27613;48.116;11.656;2023-04-21T00:44:03;18.65;;;14.25;;
41923;SDS011;27613;48.116;11.656;2023-04-21T00:46:30;21.27;;;14.02;;
41923;SDS011;27613;48.116;11.656;2023-04-21T00:48:57;26.15;;;14.73;;
41923;SDS011;27613;48.116;11.656;2023-04-21T00:51:23;18.40;;;14.60;;
41923;SDS011;27613;48.116;11.656;2023-04-21T00:53:50;16.98;;;13.68;;
41923;SDS011;27613;48.116;11.656;2023-04-21T00:56:16;16.38;;;14.15;;
41923;SDS011;27613;48.116;11.656;2023-04-21T00:58:42;15.38;;;13.55;;
41923;SDS011;27613;48.116;11.656;2023-04-21T01:01:10;17.15;;;14.25;;
41923;SDS011;27613;48.116;11.656;2023-04-21T01:03:37;15.05;;;13.38;;
41923;SDS011;27613;48.116;11.656;2023-04-21T01:06:02;18.85;;;14.73;;
41923;SDS011;27613;48.116;11.656;2023-04-21T01:08:28;17.63;;;13.15;;
41923;SDS011;27613;48.116;11.656;2023-04-21T01:10:54;15.35;;;13.35;;
41923;SDS011;27613;48.116;11.656;2023-04-21T01:13:20;16.02;;;13.13;;
41923;SDS011;27613;48.116;11.656;2023-04-21T01:15:48;14.18;;;12.68;;
41923;SDS011;27613;48.116;11.656;2023-04-21T01:18:15;17.10;;;13.48;;
41923;SDS011;27613;48.116;11.656;2023-04-21T01:20:42;14.35;;;12.45;;
41923;SDS011;27613;48.116;11.656;2023-04-21T01:23:08;16.35;;;14.18;;
41923;SDS011;27613;48.116;11.656;2023-04-21T01:25:34;18.35;;;13.95;;
41923;SDS011;27613;48.116;11.656;2023-04-21T01:28:00;15.45;;;12.80;;
41923;SDS011;27613;48.116;11.656;2023-04-21T01:30:26;16.50;;;12.80;;
41923;SDS011;27613;48.116;11.656;2023-04-21T01:32:52;20.55;;;14.32;;
41923;SDS011;27613;48.116;11.656;2023-04-21T01:35:17;16.52;;;13.50;;
41923;SDS011;27613;48.116;11.656;2023-04-21T01:37:43;18.38;;;14.45;;
41923;SDS011;27613;48.116;11.656;2023-04-21T01:40:08;15.43;;;13.48;;
41923;SDS011;27613;48.116;11.656;2023-04-21T01:42:35;15.05;;;13.45;;
41923;SDS011;27613;48.116;11.656;2023-04-21T01:45:05;16.92;;;13.75;;
41923;SDS011;27613;48.116;11.656;2023-04-21T01:47:31;14.52;;;12.95;;
41923;SDS011;27613;48.116;11.656;2023-04-21T01:49:57;17.33;;;14.80;;
41923;SDS011;27613;48.116;11.656;2023-04-21T01:52:22;15.45;;;13.32;;
41923;SDS011;27613;48.116;11.656;2023-04-21T01:54:48;18.30;;;13.63;;
41923;SDS011;27613;48.116;11.656;2023-04-21T01:57:14;16.95;;;13.13;;
41923;SDS011;27613;48.116;11.656;2023-04-21T01:59:40;18.38;;;13.50;;
41923;SDS011;27613;48.116;11.656;2023-04-21T02:02:06;16.10;;;13.05;;
41923;SDS011;27613;48.116;11.656;2023-04-21T02:04:32;13.80;;;11.57;;
41923;SDS011;27613;48.116;11.656;2023-04-21T02:06:57;13.98;;;12.32;;
41923;SDS011;27613;48.116;11.656;2023-04-21T02:09:23;13.88;;;12.23;;
41923;SDS011;27613;48.116;11.656;2023-04-21T02:11:48;17.35;;;12.93;;
41923;SDS011;27613;48.116;11.656;2023-04-21T02:14:14;21.20;;;12.95;;
41923;SDS011;27613;48.116;11.656;2023-04-21T02:16:39;14.88;;;12.57;;
41923;SDS011;27613;48.116;11.656;2023-04-21T02:19:05;14.55;;;12.57;;
41923;SDS011;27613;48.116;11.656;2023-04-21T02:21:31;16.60;;;14.18;;
41923;SDS011;27613;48.116;11.656;2023-04-21T02:23:57;15.95;;;12.75;;
41923;SDS011;27613;48.116;11.656;2023-04-21T02:26:22;14.00;;;11.55;;
41923;SDS011;27613;48.116;11.656;2023-04-21T02:28:48;17.75;;;13.02;;
41923;SDS011;27613;48.116;11.656;2023-04-21T02:31:14;15.73;;;13.20;;
41923;SDS011;27613;48.116;11.656;2023-04-21T02:33:40;16.63;;;12.77;;
41923;SDS011;27613;48.116;11.656;2023-04-21T02:36:06;15.13;;;13.27;;
41923;SDS011;27613;48.116;11.656;2023-04-21T02:38:31;17.90;;;14.43;;
41923;SDS011;27613;48.116;11.656;2023-04-21T02:40:57;15.15;;;13.50;;
41923;SDS011;27613;48.116;11.656;2023-04-21T02:43:23;17.35;;;14.23;;
41923;SDS011;27613;48.116;11.656;2023-04-21T02:45:48;14.13;;;12.63;;
41923;SDS011;27613;48.116;11.656;2023-04-21T02:48:14;16.88;;;12.45;;
41923;SDS011;27613;48.116;11.656;2023-04-21T02:50:44;15.73;;;11.98;;
41923;SDS011;27613;48.116;11.656;2023-04-21T02:53:10;15.00;;;11.95;;
41923;SDS011;27613;48.116;11.656;2023-04-21T02:55:35;13.18;;;11.45;;
41923;SDS011;27613;48.116;11.656;2023-04-21T02:58:01;16.13;;;13.57;;
41923;SDS011;27613;48.116;11.656;2023-04-21T03:00:26;18.33;;;14.32;;
41923;SDS011;27613;48.116;11.656;2023-04-21T03:02:52;23.65;;;16.13;;
41923;SDS011;27613;48.116;11.656;2023-04-21T03:05:17;17.45;;;13.38;;
41923;SDS011;27613;48.116;11.656;2023-04-21T03:07:43;17.08;;;14.40;;
41923;SDS011;27613;48.116;11.656;2023-04-21T03:10:09;15.68;;;13.18;;
41923;SDS011;27613;48.116;11.656;2023-04-21T03:12:35;15.90;;;12.93;;
41923;SDS011;27613;48.116;11.656;2023-04-21T03:15:01;17.70;;;14.00;;
41923;SDS011;27613;48.116;11.656;2023-04-21T03:17:27;14.75;;;12.63;;
41923;SDS011;27613;48.116;11.656;2023-04-21T03:19:53;19.83;;;12.63;;
41923;SDS011;27613;48.116;11.656;2023-04-21T03:22:18;18.23;;;12.07;;
41923;SDS011;27613;48.116;11.656;2023-04-21T03:24:44;14.35;;;12.05;;
41923;SDS011;27613;48.116;11.656;2023-04-21T03:27:10;15.70;;;13.48;;
41923;SDS011;27613;48.116;11.656;2023-04-21T03:29:35;15.25;;;12.27;;
41923;SDS011;27613;48.116;11.656;2023-04-21T03:32:01;15.48;;;12.77;;
41923;SDS011;27613;48.116;11.656;2023-04-21T03:34:26;14.63;;;13.00;;
41923;SDS011;27613;48.116;11.656;2023-04-21T03:36:52;15.63;;;13.10;;
41923;SDS011;27613;48.116;11.656;2023-04-21T03:39:17;14.82;;;12.55;;
41923;SDS011;27613;48.116;11.656;2023-04-21T03:41:43;14.68;;;12.98;;
41923;SDS011;27613;48.116;11.656;2023-04-21T03:44:08;13.80;;;12.35;;
41923;SDS011;27613;48.116;11.656;2023-04-21T03:46:34;18.77;;;12.77;;
41923;SDS011;27613;48.116;11.656;2023-04-21T03:48:59;13.35;;;11.85;;
41923;SDS011;27613;48.116;11.656;2023-04-21T03:51:25;15.85;;;12.40;;
41923;SDS011;27613;48.116;11.656;2023-04-21T03:53:51;17.95;;;13.43;;
41923;SDS011;27613;48.116;11.656;2023-04-21T03:56:16;14.77;;;12.48;;
41923;SDS011;27613;48.116;11.656;2023-04-21T03:58:42;15.88;;;12.70;;
41923;SDS011;27613;48.116;11.656;2023-04-21T04:01:08;11.68;;;10.07;;
41923;SDS011;27613;48.116;11.656;2023-04-21T04:03:33;13.80;;;11.57;;
41923;SDS011;27613;48.116;11.656;2023-04-21T04:05:59;14.63;;;11.02;;
41923;SDS011;27613;48.116;11.656;2023-04-21T04:08:26;13.60;;;11.27;;
41923;SDS011;27613;48.116;11.656;2023-04-21T04:10:52;11.43;;;10.23;;
41923;SDS011;27613;48.116;11.656;2023-04-21T04:13:17;12.25;;;10.95;;
41923;SDS011;27613;48.116;11.656;2023-04-21T04:15:43;13.77;;;11.63;;
41923;SDS011;27613;48.116;11.656;2023-04-21T04:18:08;11.20;;;10.00;;
41923;SDS011;27613;48.116;11.656;2023-04-21T04:20:34;13.43;;;10.27;;
41923;SDS011;27613;48.116;11.656;2023-04-21T04:23:00;12.85;;;10.13;;
41923;SDS011;27613;48.116;11.656;2023-04-21T04:25:26;12.65;;;10.30;;
41923;SDS011;27613;48.116;11.656;2023-04-21T04:27:51;12.57;;;10.07;;
41923;SDS011;27613;48.116;11.656;2023-04-21T04:30:17;13.07;;;10.45;;
41923;SDS011;27613;48.116;11.656;2023-04-21T04:32:43;12.38;;;10.63;;
41923;SDS011;27613;48.116;11.656;2023-04-21T04:35:09;12.00;;;10.25;;
41923;SDS011;27613;48.116;11.656;2023-04-21T04:37:35;11.15;;;9.95;;
41923;SDS011;27613;48.116;11.656;2023-04-21T04:40:01;12.88;;;10.70;;
41923;SDS011;27613;48.116;11.656;2023-04-21T04:42:30;11.27;;;10.02;;
41923;SDS011;27613;48.116;11.656;2023-04-21T04:44:57;11.40;;;10.20;;
41923;SDS011;27613;48.116;11.656;2023-04-21T04:47:23;11.27;;;10.00;;
41923;SDS011;27613;48.116;11.656;2023-04-21T04:49:49;11.18;;;9.98;;
41923;SDS011;27613;48.116;11.656;2023-04-21T04:52:14;14.23;;;11.88;;
41923;SDS011;27613;48.116;11.656;2023-04-21T04:54:40;11.77;;;10.52;;
41923;SDS011;27613;48.116;11.656;2023-04-21T04:57:06;11.93;;;10.60;;
41923;SDS011;27613;48.116;11.656;2023-04-21T04:59:31;13.05;;;11.13;;
41923;SDS011;27613;48.116;11.656;2023-04-21T05:01:57;13.27;;;10.82;;
41923;SDS011;27613;48.116;11.656;2023-04-21T05:04:23;13.55;;;10.98;;
41923;SDS011;27613;48.116;11.656;2023-04-21T05:06:48;11.77;;;10.45;;
41923;SDS011;27613;48.116;11.656;2023-04-21T05:09:14;13.85;;;11.75;;
41923;SDS011;27613;48.116;11.656;2023-04-21T05:11:40;13.73;;;11.75;;
41923;SDS011;27613;48.116;11.656;2023-04-21T05:14:05;18.25;;;11.57;;
41923;SDS011;27613;48.116;11.656;2023-04-21T05:16:31;14.70;;;11.25;;
41923;SDS011;27613;48.116;11.656;2023-04-21T05:18:59;12.60;;;11.25;;
41923;SDS011;27613;48.116;11.656;2023-04-21T05:21:26;13.88;;;11.88;;
41923;SDS011;27613;48.116;11.656;2023-04-21T05:23:55;21.20;;;12.85;;
41923;SDS011;27613;48.116;11.656;2023-04-21T05:26:22;14.82;;;12.35;;
41923;SDS011;27613;48.116;11.656;2023-04-21T05:28:49;12.65;;;11.35;;
41923;SDS011;27613;48.116;11.656;2023-04-21T05:31:14;13.20;;;11.75;;
41923;SDS011;27613;48.116;11.656;2023-04-21T05:33:40;12.80;;;10.88;;
41923;SDS011;27613;48.116;11.656;2023-04-21T05:36:06;13.27;;;11.88;;
41923;SDS011;27613;48.116;11.656;2023-04-21T05:38:35;13.45;;;11.32;;
41923;SDS011;27613;48.116;11.656;2023-04-21T05:41:01;13.63;;;11.75;;
41923;SDS011;27613;48.116;11.656;2023-04-21T05:43:27;13.68;;;11.43;;
41923;SDS011;27613;48.116;11.656;2023-04-21T05:45:53;14.15;;;11.07;;
41923;SDS011;27613;48.116;11.656;2023-04-21T05:48:18;13.25;;;10.77;;
41923;SDS011;27613;48.116;11.656;2023-04-21T05:50:44;13.48;;;10.98;;
41923;SDS011;27613;48.116;11.656;2023-04-21T05:53:09;13.82;;;10.77;;
41923;SDS011;27613;48.116;11.656;2023-04-21T05:55:35;16.52;;;11.13;;
41923;SDS011;27613;48.116;11.656;2023-04-21T05:58:01;14.43;;;10.63;;
41923;SDS011;27613;48.116;11.656;2023-04-21T06:00:28;11.93;;;9.77;;
41923;SDS011;27613;48.116;11.656;2023-04-21T06:02:54;9.13;;;8.20;;
41923;SDS011;27613;48.116;11.656;2023-04-21T06:05:19;10.30;;;9.23;;
41923;SDS011;27613;48.116;11.656;2023-04-21T06:07:45;11.75;;;9.23;;
41923;SDS011;27613;48.116;11.656;2023-04-21T06:10:11;9.82;;;8.82;;
41923;SDS011;27613;48.116;11.656;2023-04-21T06:12:37;10.48;;;9.07;;
41923;SDS011;27613;48.116;11.656;2023-04-21T06:15:03;13.93;;;10.30;;
41923;SDS011;27613;48.116;11.656;2023-04-21T06:17:29;8.82;;;7.93;;
41923;SDS011;27613;48.116;11.656;2023-04-21T06:19:54;9.05;;;7.60;;
41923;SDS011;27613;48.116;11.656;2023-04-21T06:22:23;8.75;;;7.80;;
41923;SDS011;27613;48.116;11.656;2023-04-21T06:24:49;9.18;;;7.63;;
41923;SDS011;27613;48.116;11.656;2023-04-21T06:27:15;9.25;;;8.00;;
41923;SDS011;27613;48.116;11.656;2023-04-21T06:29:41;9.43;;;8.43;;
41923;SDS011;27613;48.116;11.656;2023-04-21T06:32:07;9.63;;;7.90;;
41923;SDS011;27613;48.116;11.656;2023-04-21T06:34:33;9.25;;;6.80;;
41923;SDS011;27613;48.116;11.656;2023-04-21T06:36:58;8.48;;;7.57;;
41923;SDS011;27613;48.116;11.656;2023-04-21T06:39:24;7.63;;;6.70;;
41923;SDS011;27613;48.116;11.656;2023-04-21T06:41:50;10.57;;;7.72;;
41923;SDS011;27613;48.116;11.656;2023-04-21T06:44:16;9.73;;;7.18;;
41923;SDS011;27613;48.116;11.656;2023-04-21T06:46:42;9.82;;;7.80;;
41923;SDS011;27613;48.116;11.656;2023-04-21T06:49:07;9.98;;;7.90;;
41923;SDS011;27613;48.116;11.656;2023-04-21T06:51:33;11.23;;;8.48;;
41923;SDS011;27613;48.116;11.656;2023-04-21T06:53:59;10.15;;;8.48;;
41923;SDS011;27613;48.116;11.656;2023-04-21T06:56:25;11.63;;;8.15;;
41923;SDS011;27613;48.116;11.656;2023-04-21T06:58:51;10.40;;;8.85;;
41923;SDS011;27613;48.116;11.656;2023-04-21T07:01:17;10.75;;;7.82;;
41923;SDS011;27613;48.116;11.656;2023-04-21T07:03:42;25.27;;;8.60;;
41923;SDS011;27613;48.116;11.656;2023-04-21T07:06:08;10.25;;;8.38;;
41923;SDS011;27613;48.116;11.656;2023-04-21T07:08:34;11.57;;;9.45;;
41923;SDS011;27613;48.116;11.656;2023-04-21T07:11:00;10.90;;;8.90;;
41923;SDS011;27613;48.116;11.656;2023-04-21T07:13:25;12.88;;;8.43;;
41923;SDS011;27613;48.116;11.656;2023-04-21T07:15:51;12.65;;;7.93;;
41923;SDS011;27613;48.116;11.656;2023-04-21T07:18:17;11.93;;;8.38;;
41923;SDS011;27613;48.116;11.656;2023-04-21T07:20:42;9.52;;;8.02;;
41923;SDS011;27613;48.116;11.656;2023-04-21T07:23:08;11.80;;;8.05;;
41923;SDS011;27613;48.116;11.656;2023-04-21T07:25:33;9.48;;;7.95;;
41923;SDS011;27613;48.116;11.656;2023-04-21T07:27:59;10.05;;;7.93;;
41923;SDS011;27613;48.116;11.656;2023-04-21T07:30:26;8.48;;;7.03;;
41923;SDS011;27613;48.116;11.656;2023-04-21T07:32:52;11.02;;;7.32;;
41923;SDS011;27613;48.116;11.656;2023-04-21T07:35:18;7.93;;;7.13;;
41923;SDS011;27613;48.116;11.656;2023-04-21T07:37:44;7.75;;;6.82;;
41923;SDS011;27613;48.116;11.656;2023-04-21T07:40:09;8.20;;;6.10;;
41923;SDS011;27613;48.116;11.656;2023-04-21T07:42:35;8.95;;;6.75;;
41923;SDS011;27613;48.116;11.656;2023-04-21T07:45:01;7.00;;;5.80;;
41923;SDS011;27613;48.116;11.656;2023-04-21T07:47:27;7.13;;;5.70;;
41923;SDS011;27613;48.116;11.656;2023-04-21T07:49:53;7.68;;;6.20;;
41923;SDS011;27613;48.116;11.656;2023-04-21T07:52:18;7.40;;;6.10;;
41923;SDS011;27613;48.116;11.656;2023-04-21T07:54:44;8.00;;;7.03;;
41923;SDS011;27613;48.116;11.656;2023-04-21T07:57:10;7.30;;;6.10;;
41923;SDS011;27613;48.116;11.656;2023-04-21T07:59:35;6.50;;;5.53;;
41923;SDS011;27613;48.116;11.656;2023-04-21T08:02:01;6.70;;;5.40;;
41923;SDS011;27613;48.116;11.656;2023-04-21T08:04:26;8.73;;;5.60;;
41923;SDS011;27613;48.116;11.656;2023-04-21T08:06:52;6.43;;;5.40;;
41923;SDS011;27613;48.116;11.656;2023-04-21T08:09:18;8.52;;;6.22;;
41923;SDS011;27613;48.116;11.656;2023-04-21T08:11:43;7.57;;;6.13;;
41923;SDS011;27613;48.116;11.656;2023-04-21T08:14:09;11.70;;;7.28;;
41923;SDS011;27613;48.116;11.656;2023-04-21T08:16:36;6.78;;;6.10;;
41923;SDS011;27613;48.116;11.656;2023-04-21T08:19:02;9.60;;;7.15;;
41923;SDS011;27613;48.116;11.656;2023-04-21T08:21:28;11.27;;;8.38;;
41923;SDS011;27613;48.116;11.656;2023-04-21T08:23:54;10.65;;;7.65;;
41923;SDS011;27613;48.116;11.656;2023-04-21T08:26:21;8.55;;;7.68;;
41923;SDS011;27613;48.116;11.656;2023-04-21T08:28:47;8.75;;;7.85;;
41923;SDS011;27613;48.116;11.656;2023-04-21T08:31:14;9.32;;;7.70;;
41923;SDS011;27613;48.116;11.656;2023-04-21T08:33:41;9.00;;;7.40;;
41923;SDS011;27613;48.116;11.656;2023-04-21T08:36:07;9.40;;;7.57;;
41923;SDS011;27613;48.116;11.656;2023-04-21T08:38:33;10.63;;;7.78;;
41923;SDS011;27613;48.116;11.656;2023-04-21T08:40:59;9.82;;;7.28;;
41923;SDS011;27613;48.116;11.656;2023-04-21T08:43:25;10.93;;;8.48;;
41923;SDS011;27613;48.116;11.656;2023-04-21T08:45:51;11.80;;;8.10;;
41923;SDS011;27613;48.116;11.656;2023-04-21T08:48:20;8.75;;;7.85;;
41923;SDS011;27613;48.116;11.656;2023-04-21T08:50:48;9.30;;;8.27;;
41923;SDS011;27613;48.116;11.656;2023-04-21T08:53:15;8.82;;;7.63;;
41923;SDS011;27613;48.116;11.656;2023-04-21T08:55:41;10.90;;;7.43;;
41923;SDS011;27613;48.116;11.656;2023-04-21T08:58:07;9.13;;;7.05;;
41923;SDS011;27613;48.116;11.656;2023-04-21T09:00:33;8.48;;;6.65;;
41923;SDS011;27613;48.116;11.656;2023-04-21T09:03:00;8.18;;;6.15;;
41923;SDS011;27613;48.116;11.656;2023-04-21T09:05:27;9.75;;;5.60;;
41923;SDS011;27613;48.116;11.656;2023-04-21T09:08:07;7.53;;;6.38;;
41923;SDS011;27613;48.116;11.656;2023-04-21T09:13:13;7.18;;;6.10;;
41923;SDS011;27613;48.116;11.656;2023-04-21T09:15:39;9.15;;;6.90;;
41923;SDS011;27613;48.116;11.656;2023-04-21T09:18:10;8.48;;;5.88;;
41923;SDS011;27613;48.116;11.656;2023-04-21T09:20:41;19.27;;;6.28;;
41923;SDS011;27613;48.116;11.656;2023-04-21T09:23:09;6.28;;;5.55;;
41923;SDS011;27613;48.116;11.656;2023-04-21T09:25:39;6.47;;;5.80;;
41923;SDS011;27613;48.116;11.656;2023-04-21T09:28:06;7.05;;;5.82;;
41923;SDS011;27613;48.116;11.656;2023-04-21T09:30:36;13.48;;;6.03;;
41923;SDS011;27613;48.116;11.656;2023-04-21T09:33:04;7.65;;;6.25;;
41923;SDS011;27613;48.116;11.656;2023-04-21T09:35:33;9.95;;;7.43;;
41923;SDS011;27613;48.116;11.656;2023-04-21T09:38:01;6.88;;;6.18;;
41923;SDS011;27613;48.116;11.656;2023-04-21T09:40:28;7.57;;;6.78;;
41923;SDS011;27613;48.116;11.656;2023-04-21T09:42:54;7.20;;;6.00;;
41923;SDS011;27613;48.116;11.656;2023-04-21T09:45:21;7.78;;;6.47;;
41923;SDS011;27613;48.116;11.656;2023-04-21T09:47:50;7.38;;;6.47;;
41923;SDS011;27613;48.116;11.656;2023-04-21T09:50:23;6.93;;;6.22;;
41923;SDS011;27613;48.116;11.656;2023-04-21T09:52:50;6.53;;;5.55;;
41923;SDS011;27613;48.116;11.656;2023-04-21T09:55:17;8.70;;;6.57;;
41923;SDS011;27613;48.116;11.656;2023-04-21T09:57:45;8.80;;;6.38;;
41923;SDS011;27613;48.116;11.656;2023-04-21T10:00:15;9.88;;;6.50;;
41923;SDS011;27613;48.116;11.656;2023-04-21T10:02:44;9.07;;;7.20;;
41923;SDS011;27613;48.116;11.656;2023-04-21T10:05:13;11.43;;;7.38;;
41923;SDS011;27613;48.116;11.656;2023-04-21T10:07:39;8.07;;;7.15;;
41923;SDS011;27613;48.116;11.656;2023-04-21T10:10:11;8.38;;;7.13;;
41923;SDS011;27613;48.116;11.656;2023-04-21T10:12:45;7.03;;;6.32;;
41923;SDS011;27613;48.116;11.656;2023-04-21T10:15:44;10.32;;;8.80;;
41923;SDS011;27613;48.116;11.656;2023-04-21T10:18:16;7.78;;;6.68;;
41923;SDS011;27613;48.116;11.656;2023-04-21T10:20:52;11.70;;;6.78;;
41923;SDS011;27613;48.116;11.656;2023-04-21T10:23:46;10.02;;;6.50;;
41923;SDS011;27613;48.116;11.656;2023-04-21T10:26:18;8.23;;;7.03;;
41923;SDS011;27613;48.116;11.656;2023-04-21T10:31:52;7.68;;;6.18;;
41923;SDS011;27613;48.116;11.656;2023-04-21T10:34:19;6.57;;;5.75;;
41923;SDS011;27613;48.116;11.656;2023-04-21T10:39:25;7.20;;;6.47;;
41923;SDS011;27613;48.116;11.656;2023-04-21T10:41:54;8.18;;;6.75;;
41923;SDS011;27613;48.116;11.656;2023-04-21T10:44:24;7.82;;;6.35;;
41923;SDS011;27613;48.116;11.656;2023-04-21T10:46:53;7.25;;;6.07;;
41923;SDS011;27613;48.116;11.656;2023-04-21T10:49:25;6.97;;;6.10;;
41923;SDS011;27613;48.116;11.656;2023-04-21T10:54:28;6.53;;;5.25;;
41923;SDS011;27613;48.116;11.656;2023-04-21T10:57:00;6.53;;;5.80;;
41923;SDS011;27613;48.116;11.656;2023-04-21T10:59:27;6.15;;;5.15;;
41923;SDS011;27613;48.116;11.656;2023-04-21T11:01:52;6.63;;;5.93;;
41923;SDS011;27613;48.116;11.656;2023-04-21T11:04:20;5.95;;;5.38;;
41923;SDS011;27613;48.116;11.656;2023-04-21T11:09:38;8.23;;;5.38;;
41923;SDS011;27613;48.116;11.656;2023-04-21T11:12:06;7.20;;;5.38;;
41923;SDS011;27613;48.116;11.656;2023-04-21T11:14:34;5.20;;;4.70;;
41923;SDS011;27613;48.116;11.656;2023-04-21T11:17:03;6.05;;;4.93;;
41923;SDS011;27613;48.116;11.656;2023-04-21T11:19:32;4.90;;;4.38;;
41923;SDS011;27613;48.116;11.656;2023-04-21T11:21:58;5.78;;;4.50;;
41923;SDS011;27613;48.116;11.656;2023-04-21T11:24:23;5.47;;;4.82;;
41923;SDS011;27613;48.116;11.656;2023-04-21T11:26:50;3.92;;;3.53;;
41923;SDS011;27613;48.116;11.656;2023-04-21T11:29:15;4.82;;;4.18;;
41923;SDS011;27613;48.116;11.656;2023-04-21T11:31:42;6.15;;;3.80;;
41923;SDS011;27613;48.116;11.656;2023-04-21T11:34:09;5.00;;;3.75;;
41923;SDS011;27613;48.116;11.656;2023-04-21T11:36:37;4.25;;;3.65;;
41923;SDS011;27613;48.116;11.656;2023-04-21T11:39:07;6.40;;;3.60;;
41923;SDS011;27613;48.116;11.656;2023-04-21T11:41:44;3.80;;;3.03;;
41923;SDS011;27613;48.116;11.656;2023-04-21T11:44:11;3.60;;;2.55;;
41923;SDS011;27613;48.116;11.656;2023-04-21T11:46:45;2.40;;;1.88;;
41923;SDS011;27613;48.116;11.656;2023-04-21T11:49:11;3.47;;;2.40;;
41923;SDS011;27613;48.116;11.656;2023-04-21T11:51:39;2.70;;;2.10;;
41923;SDS011;27613;48.116;11.656;2023-04-21T11:54:11;2.70;;;1.90;;
41923;SDS011;27613;48.116;11.656;2023-04-21T11:56:38;3.55;;;2.50;;
41923;SDS011;27613;48.116;11.656;2023-04-21T11:59:09;4.00;;;2.75;;
41923;SDS011;27613;48.116;11.656;2023-04-21T12:01:45;5.43;;;2.58;;
41923;SDS011;27613;48.116;11.656;2023-04-21T12:04:21;2.92;;;2.28;;
41923;SDS011;27613;48.116;11.656;2023-04-21T12:06:58;4.85;;;2.83;;
41923;SDS011;27613;48.116;11.656;2023-04-21T12:09:26;3.70;;;2.78;;
41923;SDS011;27613;48.116;11.656;2023-04-21T12:11:53;3.35;;;2.35;;
41923;SDS011;27613;48.116;11.656;2023-04-21T12:14:21;3.88;;;2.35;;
41923;SDS011;27613;48.116;11.656;2023-04-21T12:16:48;3.03;;;2.40;;
41923;SDS011;27613;48.116;11.656;2023-04-21T12:21:58;2.78;;;2.08;;
41923;SDS011;27613;48.116;11.656;2023-04-21T12:24:24;4.15;;;2.42;;
41923;SDS011;27613;48.116;11.656;2023-04-21T12:26:50;3.97;;;2.35;;
41923;SDS011;27613;48.116;11.656;2023-04-21T12:29:18;3.40;;;2.08;;
41923;SDS011;27613;48.116;11.656;2023-04-21T12:31:44;2.55;;;1.83;;
41923;SDS011;27613;48.116;11.656;2023-04-21T12:34:09;1.90;;;1.55;;
41923;SDS011;27613;48.116;11.656;2023-04-21T12:36:35;2.50;;;1.85;;
41923;SDS011;27613;48.116;11.656;2023-04-21T12:39:01;2.08;;;1.40;;
41923;SDS011;27613;48.116;11.656;2023-04-21T12:41:26;2.00;;;1.50;;
41923;SDS011;27613;48.116;11.656;2023-04-21T12:43:52;1.30;;;1.10;;
41923;SDS011;27613;48.116;11.656;2023-04-21T12:46:17;2.45;;;1.40;;
41923;SDS011;27613;48.116;11.656;2023-04-21T12:48:43;1.63;;;1.17;;
41923;SDS011;27613;48.116;11.656;2023-04-21T12:51:08;2.67;;;1.52;;
41923;SDS011;27613;48.116;11.656;2023-04-21T12:53:34;1.42;;;1.00;;
41923;SDS011;27613;48.116;11.656;2023-04-21T12:56:01;1.70;;;1.27;;
41923;SDS011;27613;48.116;11.656;2023-04-21T12:58:27;2.50;;;1.50;;
41923;SDS011;27613;48.116;11.656;2023-04-21T13:00:52;2.05;;;1.48;;
41923;SDS011;27613;48.116;11.656;2023-04-21T13:03:19;2.55;;;1.60;;
41923;SDS011;27613;48.116;11.656;2023-04-21T13:05:44;2.60;;;1.65;;
41923;SDS011;27613;48.116;11.656;2023-04-21T13:08:10;2.75;;;1.60;;
41923;SDS011;27613;48.116;11.656;2023-04-21T13:10:35;2.40;;;1.70;;
41923;SDS011;27613;48.116;11.656;2023-04-21T13:13:01;2.53;;;1.60;;
41923;SDS011;27613;48.116;11.656;2023-04-21T13:15:27;2.70;;;1.60;;
41923;SDS011;27613;48.116;11.656;2023-04-21T13:17:52;2.13;;;1.50;;
41923;SDS011;27613;48.116;11.656;2023-04-21T13:20:18;2.10;;;1.52;;
41923;SDS011;27613;48.116;11.656;2023-04-21T13:22:44;1.88;;;1.50;;
41923;SDS011;27613;48.116;11.656;2023-04-21T13:25:10;2.80;;;1.60;;
41923;SDS011;27613;48.116;11.656;2023-04-21T13:27:35;1.73;;;1.20;;
41923;SDS011;27613;48.116;11.656;2023-04-21T13:30:05;1.92;;;1.50;;
41923;SDS011;27613;48.116;11.656;2023-04-21T13:32:32;1.48;;;1.15;;
41923;SDS011;27613;48.116;11.656;2023-04-21T13:34:58;2.35;;;1.40;;
41923;SDS011;27613;48.116;11.656;2023-04-21T13:37:23;1.60;;;1.10;;
41923;SDS011;27613;48.116;11.656;2023-04-21T13:39:49;1.27;;;1.17;;
41923;SDS011;27613;48.116;11.656;2023-04-21T13:42:15;6.10;;;1.40;;
41923;SDS011;27613;48.116;11.656;2023-04-21T13:44:44;1.80;;;1.30;;
41923;SDS011;27613;48.116;11.656;2023-04-21T13:47:09;2.03;;;1.30;;
41923;SDS011;27613;48.116;11.656;2023-04-21T13:49:35;2.17;;;1.60;;
41923;SDS011;27613;48.116;11.656;2023-04-21T13:52:01;2.78;;;1.42;;
41923;SDS011;27613;48.116;11.656;2023-04-21T13:54:26;2.25;;;1.40;;
41923;SDS011;27613;48.116;11.656;2023-04-21T13:56:52;1.83;;;1.30;;
41923;SDS011;27613;48.116;11.656;2023-04-21T13:59:17;2.10;;;1.50;;
41923;SDS011;27613;48.116;11.656;2023-04-21T14:01:44;4.45;;;1.40;;
41923;SDS011;27613;48.116;11.656;2023-04-21T14:04:10;1.80;;;1.33;;
41923;SDS011;27613;48.116;11.656;2023-04-21T14:06:36;1.90;;;1.30;;
41923;SDS011;27613;48.116;11.656;2023-04-21T14:09:01;1.55;;;1.30;;
41923;SDS011;27613;48.116;11.656;2023-04-21T14:11:28;2.22;;;1.30;;
41923;SDS011;27613;48.116;11.656;2023-04-21T14:13:54;2.60;;;1.33;;
41923;SDS011;27613;48.116;11.656;2023-04-21T14:16:19;1.25;;;1.00;;
41923;SDS011;27613;48.116;11.656;2023-04-21T14:18:45;2.53;;;1.27;;
41923;SDS011;27613;48.116;11.656;2023-04-21T14:21:11;2.55;;;1.10;;
41923;SDS011;27613;48.116;11.656;2023-04-21T14:23:37;1.77;;;1.20;;
41923;SDS011;27613;48.116;11.656;2023-04-21T14:26:08;2.60;;;1.10;;
41923;SDS011;27613;48.116;11.656;2023-04-21T14:28:33;1.63;;;1.13;;
41923;SDS011;27613;48.116;11.656;2023-04-21T14:30:59;1.45;;;1.00;;
41923;SDS011;27613;48.116;11.656;2023-04-21T14:33:28;2.03;;;1.10;;
41923;SDS011;27613;48.116;11.656;2023-04-21T14:35:54;3.17;;;1.30;;